createdAt,value
2018-04-26T00:00:47.423Z,112.50
2018-04-26T00:01:47.341Z,112.50
2018-04-26T00:02:47.321Z,112.50
2018-04-26T00:03:47.308Z,135.00
2018-04-26T00:04:47.445Z,135.00
2018-04-26T00:05:47.341Z,90.00
2018-04-26T00:06:47.340Z,45.00
2018-04-26T00:07:47.417Z,67.50
2018-04-26T00:08:47.341Z,247.50
2018-04-26T00:09:47.344Z,0.00
2018-04-26T00:10:47.341Z,292.50
2018-04-26T00:11:47.345Z,337.50
2018-04-26T00:12:47.343Z,135.00
2018-04-26T00:13:47.416Z,225.00
2018-04-26T00:14:47.345Z,247.50
2018-04-26T00:15:47.435Z,157.50
2018-04-26T00:16:47.384Z,157.50
2018-04-26T00:17:47.447Z,157.50
2018-04-26T00:18:47.377Z,90.00
2018-04-26T00:19:47.382Z,67.50
2018-04-26T00:20:47.353Z,67.50
2018-04-26T00:21:47.337Z,67.50
2018-04-26T00:22:47.446Z,90.00
2018-04-26T00:23:47.437Z,180.00
2018-04-26T00:24:47.437Z,157.50
2018-04-26T00:25:47.429Z,157.50
2018-04-26T00:26:47.356Z,202.50
2018-04-26T00:27:47.360Z,180.00
2018-04-26T00:28:47.346Z,90.00
2018-04-26T00:29:47.420Z,67.50
2018-04-26T00:30:47.458Z,225.00
2018-04-26T00:31:47.326Z,225.00
2018-04-26T00:32:47.344Z,90.00
2018-04-26T00:33:47.361Z,67.50
2018-04-26T00:34:47.347Z,112.50
2018-04-26T00:35:47.351Z,90.00
2018-04-26T00:36:47.455Z,157.50
2018-04-26T00:37:47.395Z,135.00
2018-04-26T00:38:47.368Z,112.50
2018-04-26T00:39:47.401Z,112.50
2018-04-26T00:40:47.370Z,180.00
2018-04-26T00:41:47.530Z,157.50
2018-04-26T00:42:47.410Z,247.50
2018-04-26T00:43:47.434Z,90.00
2018-04-26T00:44:47.444Z,225.00
2018-04-26T00:45:47.410Z,225.00
2018-04-26T00:46:47.425Z,247.50
2018-04-26T00:47:47.424Z,270.00
2018-04-26T00:48:47.329Z,292.50
2018-04-26T00:49:47.307Z,292.50
2018-04-26T00:50:47.424Z,270.00
2018-04-26T00:51:47.395Z,225.00
2018-04-26T00:52:47.428Z,180.00
2018-04-26T00:53:47.377Z,67.50
2018-04-26T00:54:47.373Z,22.50
2018-04-26T00:55:47.492Z,45.00
2018-04-26T00:56:47.370Z,45.00
2018-04-26T00:57:47.373Z,45.00
2018-04-26T00:58:47.443Z,157.50
2018-04-26T00:59:47.446Z,135.00
2018-04-26T01:00:47.371Z,90.00
2018-04-26T01:01:47.450Z,90.00
2018-04-26T01:02:47.449Z,112.50
2018-04-26T01:03:47.377Z,90.00
2018-04-26T01:04:47.447Z,90.00
2018-04-26T01:05:47.342Z,90.00
2018-04-26T01:06:47.378Z,90.00
2018-04-26T01:07:47.453Z,67.50
2018-04-26T01:08:47.451Z,135.00
2018-04-26T01:09:47.409Z,90.00
2018-04-26T01:10:47.457Z,90.00
2018-04-26T01:11:47.459Z,90.00
2018-04-26T01:12:47.413Z,112.50
2018-04-26T01:13:47.394Z,90.00
2018-04-26T01:14:47.379Z,90.00
2018-04-26T01:15:47.390Z,90.00
2018-04-26T01:16:47.325Z,90.00
2018-04-26T01:17:47.357Z,112.50
2018-04-26T01:18:47.377Z,90.00
2018-04-26T01:19:47.332Z,90.00
2018-04-26T01:20:47.349Z,112.50
2018-04-26T01:21:47.350Z,112.50
2018-04-26T01:22:47.417Z,90.00
2018-04-26T01:23:47.439Z,112.50
2018-04-26T01:24:47.351Z,67.50
2018-04-26T01:25:47.466Z,90.00
2018-04-26T01:26:47.460Z,157.50
2018-04-26T01:27:47.461Z,157.50
2018-04-26T01:28:47.460Z,90.00
2018-04-26T01:29:47.447Z,135.00
2018-04-26T01:30:47.468Z,112.50
2018-04-26T01:31:47.396Z,112.50
2018-04-26T01:32:47.459Z,45.00
2018-04-26T01:33:47.485Z,67.50
2018-04-26T01:34:47.477Z,90.00
2018-04-26T01:35:47.370Z,180.00
2018-04-26T01:36:47.386Z,225.00
2018-04-26T01:37:47.418Z,315.00
2018-04-26T01:38:47.421Z,270.00
2018-04-26T01:39:47.383Z,67.50
2018-04-26T01:40:47.386Z,135.00
2018-04-26T01:41:47.427Z,202.50
2018-04-26T01:42:47.487Z,180.00
2018-04-26T01:43:47.424Z,135.00
2018-04-26T01:44:47.328Z,90.00
2018-04-26T01:45:47.455Z,90.00
2018-04-26T01:46:47.375Z,202.50
2018-04-26T01:47:47.503Z,180.00
2018-04-26T01:48:47.474Z,135.00
2018-04-26T01:49:47.390Z,157.50
2018-04-26T01:50:47.508Z,67.50
2018-04-26T01:51:47.509Z,202.50
2018-04-26T01:52:47.501Z,112.50
2018-04-26T01:53:47.484Z,202.50
2018-04-26T01:54:47.474Z,180.00
2018-04-26T01:55:47.473Z,180.00
2018-04-26T01:56:47.475Z,202.50
2018-04-26T01:57:47.486Z,180.00
2018-04-26T01:58:47.541Z,135.00
2018-04-26T01:59:47.385Z,157.50
2018-04-26T02:00:47.396Z,67.50
2018-04-26T02:01:47.480Z,292.50
2018-04-26T02:02:47.519Z,90.00
2018-04-26T02:03:47.420Z,135.00
2018-04-26T02:04:47.464Z,157.50
2018-04-26T02:05:47.406Z,112.50
2018-04-26T02:06:47.478Z,180.00
2018-04-26T02:07:47.409Z,180.00
2018-04-26T02:08:47.409Z,90.00
2018-04-26T02:09:47.480Z,135.00
2018-04-26T02:10:47.418Z,45.00
2018-04-26T02:11:47.408Z,157.50
2018-04-26T02:12:47.480Z,202.50
2018-04-26T02:13:47.442Z,315.00
2018-04-26T02:14:47.506Z,157.50
2018-04-26T02:15:47.483Z,270.00
2018-04-26T02:16:47.396Z,247.50
2018-04-26T02:17:47.573Z,135.00
2018-04-26T02:18:47.487Z,90.00
2018-04-26T02:19:47.397Z,202.50
2018-04-26T02:20:47.487Z,135.00
2018-04-26T02:21:47.443Z,180.00
2018-04-26T02:22:47.489Z,225.00
2018-04-26T02:23:47.475Z,270.00
2018-04-26T02:24:47.401Z,157.50
2018-04-26T02:25:47.428Z,202.50
2018-04-26T02:26:47.428Z,247.50
2018-04-26T02:27:47.432Z,202.50
2018-04-26T02:28:47.501Z,180.00
2018-04-26T02:29:47.505Z,225.00
2018-04-26T02:30:47.436Z,247.50
2018-04-26T02:31:47.510Z,202.50
2018-04-26T02:32:47.453Z,135.00
2018-04-26T02:33:47.503Z,157.50
2018-04-26T02:34:47.435Z,225.00
2018-04-26T02:35:47.405Z,112.50
2018-04-26T02:36:47.500Z,90.00
2018-04-26T02:37:47.428Z,45.00
2018-04-26T02:38:47.518Z,270.00
2018-04-26T02:39:47.466Z,292.50
2018-04-26T02:40:47.443Z,90.00
2018-04-26T02:41:47.547Z,90.00
2018-04-26T02:42:47.510Z,112.50
2018-04-26T02:43:47.516Z,157.50
2018-04-26T02:44:47.515Z,135.00
2018-04-26T02:45:47.413Z,202.50
2018-04-26T02:46:47.529Z,202.50
2018-04-26T02:47:47.536Z,202.50
2018-04-26T02:48:47.522Z,270.00
2018-04-26T02:49:47.484Z,202.50
2018-04-26T02:50:47.510Z,157.50
2018-04-26T02:51:47.643Z,90.00
2018-04-26T02:52:47.509Z,157.50
2018-04-26T02:53:47.515Z,135.00
2018-04-26T02:54:47.552Z,202.50
2018-04-26T02:55:47.444Z,202.50
2018-04-26T02:56:47.521Z,202.50
2018-04-26T02:57:47.450Z,202.50
2018-04-26T02:58:47.484Z,180.00
2018-04-26T02:59:47.451Z,202.50
2018-04-26T03:00:47.521Z,90.00
2018-04-26T03:01:47.491Z,202.50
2018-04-26T03:02:47.452Z,135.00
2018-04-26T03:03:47.523Z,247.50
2018-04-26T03:04:47.453Z,112.50
2018-04-26T03:05:47.489Z,135.00
2018-04-26T03:06:47.454Z,157.50
2018-04-26T03:07:47.450Z,202.50
2018-04-26T03:08:47.481Z,225.00
2018-04-26T03:09:47.445Z,112.50
2018-04-26T03:10:47.490Z,112.50
2018-04-26T03:11:47.465Z,90.00
2018-04-26T03:12:47.565Z,90.00
2018-04-26T03:13:47.547Z,112.50
2018-04-26T03:14:47.430Z,157.50
2018-04-26T03:15:47.529Z,157.50
2018-04-26T03:16:47.493Z,135.00
2018-04-26T03:17:47.499Z,90.00
2018-04-26T03:18:47.524Z,180.00
2018-04-26T03:19:47.487Z,202.50
2018-04-26T03:20:47.432Z,112.50
2018-04-26T03:21:47.553Z,112.50
2018-04-26T03:22:47.548Z,112.50
2018-04-26T03:23:47.469Z,135.00
2018-04-26T03:24:47.489Z,135.00
2018-04-26T03:25:47.555Z,112.50
2018-04-26T03:26:47.469Z,135.00
2018-04-26T03:27:47.531Z,135.00
2018-04-26T03:28:47.560Z,112.50
2018-04-26T03:29:47.533Z,112.50
2018-04-26T03:30:47.555Z,135.00
2018-04-26T03:31:47.518Z,90.00
2018-04-26T03:32:47.554Z,90.00
2018-04-26T03:33:47.596Z,112.50
2018-04-26T03:34:47.510Z,112.50
2018-04-26T03:35:47.471Z,112.50
2018-04-26T03:36:47.539Z,112.50
2018-04-26T03:37:47.471Z,112.50
2018-04-26T03:38:47.541Z,90.00
2018-04-26T03:39:47.473Z,112.50
2018-04-26T03:40:47.544Z,112.50
2018-04-26T03:41:47.475Z,90.00
2018-04-26T03:42:47.546Z,135.00
2018-04-26T03:43:47.540Z,135.00
2018-04-26T03:44:47.427Z,112.50
2018-04-26T03:45:47.529Z,90.00
2018-04-26T03:46:47.506Z,90.00
2018-04-26T03:47:47.506Z,90.00
2018-04-26T03:48:47.564Z,90.00
2018-04-26T03:49:47.485Z,112.50
2018-04-26T03:50:47.511Z,112.50
2018-04-26T03:51:47.538Z,135.00
2018-04-26T03:52:47.573Z,112.50
2018-04-26T03:53:47.552Z,112.50
2018-04-26T03:54:47.521Z,90.00
2018-04-26T03:55:47.486Z,90.00
2018-04-26T03:56:47.556Z,112.50
2018-04-26T03:57:47.491Z,90.00
2018-04-26T03:58:47.485Z,90.00
2018-04-26T03:59:47.559Z,67.50
2018-04-26T04:00:47.499Z,135.00
2018-04-26T04:01:47.487Z,90.00
2018-04-26T04:02:47.487Z,90.00
2018-04-26T04:03:47.505Z,45.00
2018-04-26T04:04:47.490Z,45.00
2018-04-26T04:05:47.482Z,90.00
2018-04-26T04:06:47.557Z,67.50
2018-04-26T04:07:47.558Z,157.50
2018-04-26T04:08:47.593Z,90.00
2018-04-26T04:09:47.556Z,90.00
2018-04-26T04:10:47.486Z,112.50
2018-04-26T04:11:47.590Z,90.00
2018-04-26T04:12:47.466Z,90.00
2018-04-26T04:13:47.596Z,90.00
2018-04-26T04:14:47.563Z,90.00
2018-04-26T04:15:47.507Z,112.50
2018-04-26T04:16:47.561Z,90.00
2018-04-26T04:17:47.468Z,90.00
2018-04-26T04:18:47.472Z,90.00
2018-04-26T04:19:47.489Z,45.00
2018-04-26T04:20:47.529Z,67.50
2018-04-26T04:21:47.561Z,90.00
2018-04-26T04:22:47.564Z,112.50
2018-04-26T04:23:47.555Z,112.50
2018-04-26T04:24:47.532Z,135.00
2018-04-26T04:25:47.567Z,90.00
2018-04-26T04:26:47.576Z,180.00
2018-04-26T04:27:47.508Z,112.50
2018-04-26T04:28:47.495Z,112.50
2018-04-26T04:29:47.583Z,112.50
2018-04-26T04:30:47.596Z,112.50
2018-04-26T04:31:47.493Z,90.00
2018-04-26T04:32:47.540Z,90.00
2018-04-26T04:33:47.551Z,112.50
2018-04-26T04:34:47.539Z,157.50
2018-04-26T04:35:47.574Z,112.50
2018-04-26T04:36:47.507Z,90.00
2018-04-26T04:37:47.513Z,90.00
2018-04-26T04:38:47.511Z,112.50
2018-04-26T04:39:47.581Z,157.50
2018-04-26T04:40:47.507Z,112.50
2018-04-26T04:41:47.515Z,135.00
2018-04-26T04:42:47.583Z,90.00
2018-04-26T04:43:47.509Z,90.00
2018-04-26T04:44:47.480Z,90.00
2018-04-26T04:45:47.588Z,112.50
2018-04-26T04:46:47.532Z,90.00
2018-04-26T04:47:47.520Z,90.00
2018-04-26T04:48:47.581Z,112.50
2018-04-26T04:49:47.465Z,67.50
2018-04-26T04:50:47.521Z,112.50
2018-04-26T04:51:47.517Z,112.50
2018-04-26T04:52:47.594Z,67.50
2018-04-26T04:53:47.522Z,90.00
2018-04-26T04:54:47.518Z,90.00
2018-04-26T04:55:47.486Z,67.50
2018-04-26T04:56:47.527Z,180.00
2018-04-26T04:57:47.524Z,270.00
2018-04-26T04:58:47.598Z,180.00
2018-04-26T04:59:47.522Z,112.50
2018-04-26T05:00:47.478Z,180.00
2018-04-26T05:01:47.528Z,202.50
2018-04-26T05:02:47.603Z,157.50
2018-04-26T05:03:47.525Z,202.50
2018-04-26T05:04:47.475Z,202.50
2018-04-26T05:05:47.530Z,202.50
2018-04-26T05:06:47.591Z,180.00
2018-04-26T05:07:47.534Z,157.50
2018-04-26T05:08:47.598Z,225.00
2018-04-26T05:09:47.561Z,270.00
2018-04-26T05:10:47.604Z,270.00
2018-04-26T05:11:47.598Z,292.50
2018-04-26T05:12:47.599Z,225.00
2018-04-26T05:13:47.599Z,247.50
2018-04-26T05:14:47.612Z,180.00
2018-04-26T05:15:47.643Z,157.50
2018-04-26T05:16:47.575Z,157.50
2018-04-26T05:17:47.503Z,202.50
2018-04-26T05:18:47.567Z,225.00
2018-04-26T05:19:47.671Z,247.50
2018-04-26T05:20:47.527Z,202.50
2018-04-26T05:21:47.623Z,247.50
2018-04-26T05:22:47.627Z,202.50
2018-04-26T05:23:47.637Z,180.00
2018-04-26T05:24:47.605Z,157.50
2018-04-26T05:25:47.608Z,202.50
2018-04-26T05:26:47.550Z,157.50
2018-04-26T05:27:47.543Z,180.00
2018-04-26T05:28:47.608Z,202.50
2018-04-26T05:29:47.607Z,247.50
2018-04-26T05:30:47.540Z,202.50
2018-04-26T05:31:47.614Z,225.00
2018-04-26T05:32:47.619Z,270.00
2018-04-26T05:33:47.597Z,225.00
2018-04-26T05:34:47.612Z,67.50
2018-04-26T05:35:47.568Z,112.50
2018-04-26T05:36:47.579Z,135.00
2018-04-26T05:37:47.643Z,90.00
2018-04-26T05:38:47.585Z,90.00
2018-04-26T05:39:47.525Z,157.50
2018-04-26T05:40:47.577Z,67.50
2018-04-26T05:41:47.639Z,90.00
2018-04-26T05:42:47.581Z,180.00
2018-04-26T05:43:47.621Z,45.00
2018-04-26T05:44:47.519Z,270.00
2018-04-26T05:45:47.580Z,315.00
2018-04-26T05:46:47.586Z,202.50
2018-04-26T05:47:47.597Z,180.00
2018-04-26T05:48:47.649Z,157.50
2018-04-26T05:49:47.589Z,202.50
2018-04-26T05:50:47.521Z,157.50
2018-04-26T05:51:47.620Z,157.50
2018-04-26T05:52:47.596Z,225.00
2018-04-26T05:53:47.591Z,202.50
2018-04-26T05:54:47.642Z,180.00
2018-04-26T05:55:47.689Z,90.00
2018-04-26T05:56:47.559Z,90.00
2018-04-26T05:57:47.567Z,135.00
2018-04-26T05:58:47.561Z,90.00
2018-04-26T05:59:47.630Z,67.50
2018-04-26T06:00:47.564Z,90.00
2018-04-26T06:01:47.561Z,135.00
2018-04-26T06:02:47.630Z,90.00
2018-04-26T06:03:47.622Z,112.50
2018-04-26T06:04:47.651Z,112.50
2018-04-26T06:05:47.606Z,90.00
2018-04-26T06:06:47.575Z,90.00
2018-04-26T06:07:47.632Z,112.50
2018-04-26T06:08:47.570Z,90.00
2018-04-26T06:09:47.633Z,90.00
2018-04-26T06:10:47.573Z,90.00
2018-04-26T06:11:47.568Z,90.00
2018-04-26T06:12:47.645Z,202.50
2018-04-26T06:13:47.566Z,180.00
2018-04-26T06:14:47.646Z,112.50
2018-04-26T06:15:47.570Z,202.50
2018-04-26T06:16:47.652Z,270.00
2018-04-26T06:17:47.639Z,270.00
2018-04-26T06:18:47.570Z,247.50
2018-04-26T06:19:47.641Z,270.00
2018-04-26T06:20:47.591Z,270.00
2018-04-26T06:21:47.645Z,180.00
2018-04-26T06:22:47.575Z,270.00
2018-04-26T06:23:47.614Z,225.00
2018-04-26T06:24:47.650Z,225.00
2018-04-26T06:25:47.644Z,247.50
2018-04-26T06:26:47.579Z,270.00
2018-04-26T06:27:47.580Z,247.50
2018-04-26T06:28:47.644Z,225.00
2018-04-26T06:29:47.588Z,225.00
2018-04-26T06:30:47.651Z,270.00
2018-04-26T06:31:47.652Z,292.50
2018-04-26T06:32:47.584Z,225.00
2018-04-26T06:33:47.577Z,270.00
2018-04-26T06:34:47.651Z,270.00
2018-04-26T06:35:47.686Z,270.00
2018-04-26T06:36:47.552Z,270.00
2018-04-26T06:37:47.638Z,270.00
2018-04-26T06:38:47.607Z,270.00
2018-04-26T06:39:47.555Z,202.50
2018-04-26T06:40:47.542Z,225.00
2018-04-26T06:41:47.581Z,292.50
2018-04-26T06:42:47.547Z,270.00
2018-04-26T06:43:47.595Z,202.50
2018-04-26T06:44:47.528Z,270.00
2018-04-26T06:45:47.599Z,225.00
2018-04-26T06:46:47.580Z,202.50
2018-04-26T06:47:47.772Z,157.50
2018-04-26T06:48:47.681Z,292.50
2018-04-26T06:49:47.694Z,247.50
2018-04-26T06:50:47.636Z,225.00
2018-04-26T06:51:47.580Z,270.00
2018-04-26T06:52:47.660Z,202.50
2018-04-26T06:53:47.696Z,225.00
2018-04-26T06:54:47.623Z,202.50
2018-04-26T06:55:47.621Z,247.50
2018-04-26T06:56:47.599Z,202.50
2018-04-26T06:57:47.671Z,180.00
2018-04-26T06:58:47.597Z,180.00
2018-04-26T06:59:47.708Z,157.50
2018-04-26T07:00:47.673Z,135.00
2018-04-26T07:01:47.599Z,202.50
2018-04-26T07:02:47.604Z,135.00
2018-04-26T07:03:47.671Z,180.00
2018-04-26T07:04:47.597Z,180.00
2018-04-26T07:05:47.719Z,202.50
2018-04-26T07:06:47.633Z,202.50
2018-04-26T07:07:47.649Z,157.50
2018-04-26T07:08:47.654Z,180.00
2018-04-26T07:09:47.578Z,180.00
2018-04-26T07:10:47.674Z,157.50
2018-04-26T07:11:47.599Z,202.50
2018-04-26T07:12:47.751Z,180.00
2018-04-26T07:13:47.637Z,247.50
2018-04-26T07:14:48.517Z,247.50
2018-04-26T07:15:47.584Z,270.00
2018-04-26T07:16:47.628Z,247.50
2018-04-26T07:17:47.679Z,202.50
2018-04-26T07:18:47.678Z,180.00
2018-04-26T07:19:47.686Z,202.50
2018-04-26T07:20:47.610Z,247.50
2018-04-26T07:21:47.680Z,247.50
2018-04-26T07:22:47.622Z,225.00
2018-04-26T07:23:47.680Z,112.50
2018-04-26T07:24:47.690Z,180.00
2018-04-26T07:25:47.613Z,247.50
2018-04-26T07:26:47.687Z,225.00
2018-04-26T07:27:47.567Z,202.50
2018-04-26T07:28:47.573Z,157.50
2018-04-26T07:29:47.639Z,247.50
2018-04-26T07:30:47.591Z,247.50
2018-04-26T07:31:47.676Z,202.50
2018-04-26T07:32:47.621Z,180.00
2018-04-26T07:33:47.555Z,180.00
2018-04-26T07:34:47.704Z,225.00
2018-04-26T07:35:47.672Z,180.00
2018-04-26T07:36:47.584Z,202.50
2018-04-26T07:37:47.670Z,180.00
2018-04-26T07:38:47.641Z,202.50
2018-04-26T07:39:47.678Z,157.50
2018-04-26T07:40:47.676Z,202.50
2018-04-26T07:41:47.676Z,202.50
2018-04-26T07:42:47.565Z,180.00
2018-04-26T07:43:47.564Z,247.50
2018-04-26T07:44:47.647Z,270.00
2018-04-26T07:45:47.561Z,247.50
2018-04-26T07:46:47.703Z,135.00
2018-04-26T07:47:47.638Z,202.50
2018-04-26T07:48:47.723Z,180.00
2018-04-26T07:49:47.648Z,157.50
2018-04-26T07:50:47.702Z,247.50
2018-04-26T07:51:47.635Z,225.00
2018-04-26T07:52:47.633Z,270.00
2018-04-26T07:53:47.700Z,202.50
2018-04-26T07:54:47.636Z,180.00
2018-04-26T07:55:47.705Z,180.00
2018-04-26T07:56:47.638Z,157.50
2018-04-26T07:57:47.635Z,202.50
2018-04-26T07:58:47.702Z,180.00
2018-04-26T07:59:47.634Z,270.00
2018-04-26T08:00:47.726Z,292.50
2018-04-26T08:01:47.757Z,270.00
2018-04-26T08:02:47.586Z,270.00
2018-04-26T08:03:47.637Z,180.00
2018-04-26T08:04:47.661Z,292.50
2018-04-26T08:05:47.685Z,247.50
2018-04-26T08:06:47.609Z,270.00
2018-04-26T08:07:47.605Z,270.00
2018-04-26T08:08:47.562Z,202.50
2018-04-26T08:09:47.608Z,180.00
2018-04-26T08:10:47.665Z,180.00
2018-04-26T08:11:47.682Z,180.00
2018-04-26T08:12:47.658Z,180.00
2018-04-26T08:13:47.610Z,247.50
2018-04-26T08:14:47.664Z,225.00
2018-04-26T08:15:47.662Z,202.50
2018-04-26T08:16:47.700Z,202.50
2018-04-26T08:17:47.577Z,202.50
2018-04-26T08:18:47.640Z,225.00
2018-04-26T08:19:47.619Z,202.50
2018-04-26T08:20:47.642Z,202.50
2018-04-26T08:21:47.592Z,225.00
2018-04-26T08:22:47.610Z,202.50
2018-04-26T08:23:47.678Z,202.50
2018-04-26T08:24:47.608Z,202.50
2018-04-26T08:25:47.613Z,202.50
2018-04-26T08:26:47.760Z,225.00
2018-04-26T08:27:47.754Z,202.50
2018-04-26T08:28:47.693Z,180.00
2018-04-26T08:29:47.755Z,225.00
2018-04-26T08:30:47.755Z,247.50
2018-04-26T08:31:47.688Z,247.50
2018-04-26T08:32:47.690Z,202.50
2018-04-26T08:33:47.630Z,202.50
2018-04-26T08:34:47.743Z,225.00
2018-04-26T08:35:47.743Z,247.50
2018-04-26T08:36:47.703Z,202.50
2018-04-26T08:37:47.704Z,202.50
2018-04-26T08:38:47.695Z,225.00
2018-04-26T08:39:47.726Z,247.50
2018-04-26T08:40:47.731Z,180.00
2018-04-26T08:41:47.712Z,180.00
2018-04-26T08:42:47.693Z,225.00
2018-04-26T08:43:47.766Z,202.50
2018-04-26T08:44:47.639Z,247.50
2018-04-26T08:45:47.637Z,180.00
2018-04-26T08:46:47.735Z,202.50
2018-04-26T08:47:47.765Z,202.50
2018-04-26T08:48:47.653Z,225.00
2018-04-26T08:49:47.644Z,180.00
2018-04-26T08:50:47.696Z,225.00
2018-04-26T08:51:47.702Z,247.50
2018-04-26T08:52:47.771Z,225.00
2018-04-26T08:53:47.717Z,247.50
2018-04-26T08:54:47.699Z,225.00
2018-04-26T08:55:47.704Z,225.00
2018-04-26T08:56:47.777Z,202.50
2018-04-26T08:57:47.649Z,247.50
2018-04-26T08:58:47.676Z,247.50
2018-04-26T08:59:47.853Z,202.50
2018-04-26T09:00:47.645Z,247.50
2018-04-26T09:01:47.770Z,270.00
2018-04-26T09:02:47.708Z,202.50
2018-04-26T09:03:47.685Z,180.00
2018-04-26T09:04:47.714Z,202.50
2018-04-26T09:05:47.747Z,180.00
2018-04-26T09:06:47.712Z,180.00
2018-04-26T09:07:47.743Z,202.50
2018-04-26T09:08:47.748Z,202.50
2018-04-26T09:09:47.686Z,225.00
2018-04-26T09:10:47.781Z,180.00
2018-04-26T09:11:47.685Z,202.50
2018-04-26T09:12:47.753Z,247.50
2018-04-26T09:13:47.683Z,225.00
2018-04-26T09:14:47.756Z,202.50
2018-04-26T09:15:47.762Z,202.50
2018-04-26T09:16:47.683Z,202.50
2018-04-26T09:17:47.689Z,225.00
2018-04-26T09:18:47.755Z,270.00
2018-04-26T09:19:47.687Z,247.50
2018-04-26T09:20:47.774Z,202.50
2018-04-26T09:21:47.691Z,225.00
2018-04-26T09:22:47.756Z,270.00
2018-04-26T09:23:47.685Z,247.50
2018-04-26T09:24:47.765Z,202.50
2018-04-26T09:25:47.698Z,247.50
2018-04-26T09:26:47.645Z,202.50
2018-04-26T09:27:47.744Z,225.00
2018-04-26T09:28:47.709Z,247.50
2018-04-26T09:29:47.708Z,247.50
2018-04-26T09:30:47.673Z,247.50
2018-04-26T09:31:47.699Z,247.50
2018-04-26T09:32:47.647Z,270.00
2018-04-26T09:33:47.833Z,225.00
2018-04-26T09:34:47.692Z,247.50
2018-04-26T09:35:47.707Z,247.50
2018-04-26T09:36:47.767Z,225.00
2018-04-26T09:37:47.700Z,180.00
2018-04-26T09:38:47.814Z,180.00
2018-04-26T09:39:47.763Z,202.50
2018-04-26T09:40:47.697Z,180.00
2018-04-26T09:41:47.700Z,225.00
2018-04-26T09:42:47.775Z,225.00
2018-04-26T09:43:47.700Z,225.00
2018-04-26T09:44:47.771Z,225.00
2018-04-26T09:45:47.708Z,180.00
2018-04-26T09:46:47.770Z,225.00
2018-04-26T09:47:47.778Z,225.00
2018-04-26T09:48:47.706Z,225.00
2018-04-26T09:49:47.777Z,202.50
2018-04-26T09:50:47.704Z,225.00
2018-04-26T09:51:47.706Z,225.00
2018-04-26T09:52:47.780Z,202.50
2018-04-26T09:53:47.707Z,202.50
2018-04-26T09:54:47.780Z,180.00
2018-04-26T09:55:47.739Z,202.50
2018-04-26T09:56:47.777Z,247.50
2018-04-26T09:57:47.706Z,180.00
2018-04-26T09:58:47.776Z,225.00
2018-04-26T09:59:47.712Z,202.50
2018-04-26T10:00:47.780Z,202.50
2018-04-26T10:01:47.828Z,202.50
2018-04-26T10:02:47.717Z,225.00
2018-04-26T10:03:47.785Z,180.00
2018-04-26T10:04:47.783Z,202.50
2018-04-26T10:05:47.714Z,270.00
2018-04-26T10:06:47.768Z,202.50
2018-04-26T10:07:47.776Z,180.00
2018-04-26T10:08:47.733Z,180.00
2018-04-26T10:09:47.736Z,225.00
2018-04-26T10:10:47.693Z,247.50
2018-04-26T10:11:47.770Z,247.50
2018-04-26T10:12:47.784Z,225.00
2018-04-26T10:13:47.697Z,225.00
2018-04-26T10:14:47.772Z,247.50
2018-04-26T10:15:47.669Z,247.50
2018-04-26T10:16:47.722Z,202.50
2018-04-26T10:17:47.719Z,202.50
2018-04-26T10:18:47.796Z,180.00
2018-04-26T10:19:47.794Z,157.50
2018-04-26T10:20:47.729Z,225.00
2018-04-26T10:21:47.797Z,225.00
2018-04-26T10:22:47.797Z,247.50
2018-04-26T10:23:47.824Z,202.50
2018-04-26T10:24:47.796Z,202.50
2018-04-26T10:25:47.728Z,247.50
2018-04-26T10:26:47.726Z,270.00
2018-04-26T10:27:47.800Z,270.00
2018-04-26T10:28:47.798Z,247.50
2018-04-26T10:29:47.731Z,202.50
2018-04-26T10:30:47.801Z,202.50
2018-04-26T10:31:47.728Z,202.50
2018-04-26T10:32:47.801Z,202.50
2018-04-26T10:33:47.804Z,225.00
2018-04-26T10:34:47.804Z,202.50
2018-04-26T10:35:47.801Z,202.50
2018-04-26T10:36:47.806Z,202.50
2018-04-26T10:37:47.733Z,247.50
2018-04-26T10:38:47.802Z,225.00
2018-04-26T10:39:47.756Z,247.50
2018-04-26T10:40:47.807Z,225.00
2018-04-26T10:41:47.738Z,180.00
2018-04-26T10:42:47.809Z,180.00
2018-04-26T10:43:47.745Z,202.50
2018-04-26T10:44:47.810Z,202.50
2018-04-26T10:45:47.739Z,247.50
2018-04-26T10:46:47.858Z,180.00
2018-04-26T10:47:47.774Z,270.00
2018-04-26T10:48:47.840Z,247.50
2018-04-26T10:49:47.846Z,202.50
2018-04-26T10:50:47.788Z,202.50
2018-04-26T10:51:47.825Z,247.50
2018-04-26T10:52:47.767Z,225.00
2018-04-26T10:53:47.843Z,157.50
2018-04-26T10:54:47.837Z,225.00
2018-04-26T10:55:47.911Z,180.00
2018-04-26T10:56:47.803Z,225.00
2018-04-26T10:57:47.798Z,157.50
2018-04-26T10:58:47.806Z,270.00
2018-04-26T10:59:47.809Z,270.00
2018-04-26T11:00:47.700Z,247.50
2018-04-26T11:01:47.764Z,225.00
2018-04-26T11:02:47.810Z,202.50
2018-04-26T11:03:47.803Z,202.50
2018-04-26T11:04:47.771Z,225.00
2018-04-26T11:05:47.724Z,225.00
2018-04-26T11:06:47.854Z,225.00
2018-04-26T11:07:47.741Z,202.50
2018-04-26T11:08:47.839Z,180.00
2018-04-26T11:09:47.778Z,202.50
2018-04-26T11:10:47.720Z,225.00
2018-04-26T11:11:47.842Z,292.50
2018-04-26T11:12:47.733Z,180.00
2018-04-26T11:13:47.778Z,135.00
2018-04-26T11:14:47.820Z,225.00
2018-04-26T11:15:47.805Z,180.00
2018-04-26T11:16:47.859Z,180.00
2018-04-26T11:17:47.852Z,202.50
2018-04-26T11:18:47.802Z,270.00
2018-04-26T11:20:47.868Z,202.50
2018-04-26T11:21:47.796Z,225.00
2018-04-26T11:22:47.741Z,247.50
2018-04-26T11:24:47.851Z,247.50
2018-04-26T11:25:47.759Z,270.00
2018-04-26T11:26:47.837Z,247.50
2018-04-26T11:27:47.767Z,225.00
2018-04-26T11:28:47.766Z,202.50
2018-04-26T11:29:47.770Z,202.50
2018-04-26T11:30:47.853Z,202.50
2018-04-26T11:31:47.767Z,247.50
2018-04-26T11:32:47.864Z,180.00
2018-04-26T11:33:47.770Z,202.50
2018-04-26T11:34:47.845Z,225.00
2018-04-26T11:35:47.840Z,225.00
2018-04-26T11:36:47.872Z,202.50
2018-04-26T11:37:47.773Z,180.00
2018-04-26T11:38:47.844Z,247.50
2018-04-26T11:39:47.787Z,180.00
2018-04-26T11:40:47.846Z,225.00
2018-04-26T11:41:47.774Z,270.00
2018-04-26T11:42:47.847Z,225.00
2018-04-26T11:43:47.775Z,225.00
2018-04-26T11:44:47.844Z,225.00
2018-04-26T11:45:47.850Z,247.50
2018-04-26T11:46:47.925Z,270.00
2018-04-26T11:47:47.755Z,247.50
2018-04-26T11:48:47.788Z,202.50
2018-04-26T11:49:47.734Z,225.00
2018-04-26T11:50:47.720Z,247.50
2018-04-26T11:51:47.844Z,202.50
2018-04-26T11:52:47.810Z,157.50
2018-04-26T11:53:47.759Z,202.50
2018-04-26T11:54:47.802Z,225.00
2018-04-26T11:55:47.839Z,270.00
2018-04-26T11:56:47.749Z,270.00
2018-04-26T11:57:47.830Z,292.50
2018-04-26T11:58:47.728Z,292.50
2018-04-26T11:59:47.749Z,270.00
2018-04-26T12:00:47.830Z,270.00
2018-04-26T12:01:47.755Z,270.00
2018-04-26T12:02:47.847Z,270.00
2018-04-26T12:03:47.837Z,270.00
2018-04-26T12:04:47.814Z,247.50
2018-04-26T12:05:47.748Z,225.00
2018-04-26T12:06:47.880Z,270.00
2018-04-26T12:07:47.913Z,247.50
2018-04-26T12:08:47.888Z,270.00
2018-04-26T12:09:47.781Z,270.00
2018-04-26T12:10:47.894Z,292.50
2018-04-26T12:11:47.894Z,270.00
2018-04-26T12:12:47.884Z,270.00
2018-04-26T12:13:47.831Z,270.00
2018-04-26T12:14:47.881Z,247.50
2018-04-26T12:15:47.882Z,270.00
2018-04-26T12:16:47.800Z,270.00
2018-04-26T12:17:47.729Z,270.00
2018-04-26T12:18:47.815Z,225.00
2018-04-26T12:19:47.739Z,225.00
2018-04-26T12:20:47.734Z,157.50
2018-04-26T12:21:47.743Z,180.00
2018-04-26T12:22:47.854Z,202.50
2018-04-26T12:23:47.735Z,225.00
2018-04-26T12:24:47.806Z,247.50
2018-04-26T12:25:47.769Z,202.50
2018-04-26T12:26:47.903Z,180.00
2018-04-26T12:27:47.898Z,180.00
2018-04-26T12:28:47.814Z,180.00
2018-04-26T12:29:47.775Z,202.50
2018-04-26T12:30:47.897Z,202.50
2018-04-26T12:31:47.847Z,180.00
2018-04-26T12:32:47.784Z,202.50
2018-04-26T12:33:47.905Z,247.50
2018-04-26T12:34:47.849Z,202.50